SLET/SRZ METAR and TAF weather

Enter ICAO airport designator
Station Type Date Time Source
SLET METAR 2020/11/27 14:00 UTC NOAA

SLET 271400Z 08007KT 9999 SCT012 BKN015 OVC070 24/21 Q1016


Station Type Date Time Source
SLET Decoded METAR 2020/11/27 14:00 UTC NOAA

Santa Cruz / El Trompillo, Bolivia (SLET) 17-48S 063-11W 414M
Nov 27, 2020 - 09:00 AM EST / 2020.11.27 1400 UTC
Wind: from the E (080 degrees) at 8 MPH (7 KT):0
Visibility: greater than 7 mile(s):0
Sky conditions: overcast
Temperature: 75 F (24 C)
Dew Point: 69 F (21 C)
Relative Humidity: 83%
Pressure (altimeter): 30.00 in. Hg (1016 hPa)
ob: SLET 271400Z 08007KT 9999 SCT012 BKN015 OVC070 24/21 Q1016
cycle: 14

Station Type Date Time Source
SLET TAF 2020/11/27 12:21 UTC NOAA

TAF SLET 270950Z 2712/2812 18010KT 5000 RA BKN010 FEW030CB OVC070 TX31/2719Z TN22/2810Z
BECMG 2714/2717 33010KT 9999 NSW BKN015 BKN070
TEMPO 2719/2721 8000 SHRA BKN020 FEW025TCU
BECMG 2809/2812 33015KT SCT023

Example: see airport list